createdAt,value
2023-06-10T00:03:30.025Z,100730.81
2023-06-10T00:08:32.731Z,100732.53
2023-06-10T00:13:34.836Z,100732.53
2023-06-10T00:18:40.031Z,100725.56
2023-06-10T00:23:42.539Z,100731.94
2023-06-10T00:28:46.436Z,100727.50
2023-06-10T00:33:48.543Z,100734.63
2023-06-10T00:38:50.803Z,100725.81
2023-06-10T00:43:52.706Z,100736.56
2023-06-10T00:48:54.989Z,100728.50
2023-06-10T00:53:57.777Z,100731.31
2023-06-10T00:59:00.178Z,100730.47
2023-06-10T01:04:02.490Z,100734.13
2023-06-10T01:09:30.920Z,100729.63
2023-06-10T01:14:34.049Z,100728.50
2023-06-10T01:19:37.974Z,100728.63
2023-06-10T01:24:41.785Z,100727.78
2023-06-10T01:29:50.395Z,100728.19
2023-06-10T01:34:53.066Z,100729.03
2023-06-10T01:40:00.064Z,100733.56
2023-06-10T01:45:02.314Z,100730.00
2023-06-10T01:50:04.387Z,100728.19
2023-06-10T01:55:07.332Z,100728.31
2023-06-10T02:00:10.318Z,100731.00
2023-06-10T02:05:12.627Z,100732.97
2023-06-10T02:10:14.735Z,100732.00
2023-06-10T02:15:16.950Z,100736.38
2023-06-10T02:20:18.952Z,100737.50
2023-06-10T02:25:21.567Z,100736.66
2023-06-10T02:30:23.698Z,100750.13
2023-06-10T02:35:25.670Z,100747.66
2023-06-10T02:40:27.846Z,100746.41
2023-06-10T02:45:29.907Z,100750.22
2023-06-10T02:50:31.967Z,100753.31
2023-06-10T02:55:34.041Z,100754.91
2023-06-10T03:00:37.223Z,100754.91
2023-06-10T03:05:39.359Z,100749.50
2023-06-10T03:10:41.544Z,100751.34
2023-06-10T03:15:43.511Z,100748.78
2023-06-10T03:20:46.032Z,100749.91
2023-06-10T03:25:48.098Z,100754.16
2023-06-10T03:30:50.002Z,100765.19
2023-06-10T03:35:52.541Z,100773.84
2023-06-10T03:40:54.535Z,100773.41
2023-06-10T03:45:56.805Z,100775.09
2023-06-10T03:50:59.910Z,100776.81
2023-06-10T03:56:02.065Z,100779.63
2023-06-10T04:01:04.144Z,100782.34
2023-06-10T04:06:06.851Z,100780.75
2023-06-10T04:11:09.267Z,100782.84
2023-06-10T04:16:11.974Z,100784.41
2023-06-10T04:21:14.234Z,100783.28
2023-06-10T04:26:16.952Z,100789.56
2023-06-10T04:31:19.180Z,100786.13
2023-06-10T04:36:21.179Z,100794.34
2023-06-10T04:41:23.824Z,100796.91
2023-06-10T04:46:26.067Z,100796.91
2023-06-10T04:51:28.193Z,100787.22
2023-06-10T04:56:30.327Z,100788.50
2023-06-10T05:01:32.700Z,100795.19
2023-06-10T05:06:34.837Z,100797.75
2023-06-10T05:11:36.891Z,100791.53
2023-06-10T05:16:40.025Z,100794.06
2023-06-10T05:21:42.222Z,100801.91
2023-06-10T05:26:44.165Z,100791.13
2023-06-10T05:31:46.493Z,100791.84
2023-06-10T05:36:48.507Z,100804.19
2023-06-10T05:41:50.507Z,100799.53
2023-06-10T05:46:52.482Z,100808.59
2023-06-10T05:51:54.502Z,100809.56
2023-06-10T05:56:56.473Z,100811.75
2023-06-10T06:01:58.415Z,100809.91
2023-06-10T06:07:00.556Z,100807.09
2023-06-10T06:12:02.605Z,100813.09
2023-06-10T06:17:04.965Z,100810.41
2023-06-10T06:22:07.148Z,100815.41
2023-06-10T06:27:09.050Z,100818.72
2023-06-10T06:32:11.109Z,100820.41
2023-06-10T06:37:13.546Z,100815.88
2023-06-10T06:42:15.676Z,100821.25
2023-06-10T06:47:21.310Z,100821.41
2023-06-10T06:52:23.778Z,100826.63
2023-06-10T06:57:25.853Z,100827.50
2023-06-10T07:02:27.856Z,100827.38
2023-06-10T07:07:29.902Z,100826.41
2023-06-10T07:12:32.190Z,100829.41
2023-06-10T07:17:36.745Z,100827.56
2023-06-10T07:22:40.453Z,100827.56
2023-06-10T07:27:42.476Z,100841.81
2023-06-10T07:32:45.585Z,100844.00
2023-06-10T07:37:47.762Z,100838.00
2023-06-10T07:42:49.696Z,100846.50
2023-06-10T07:47:51.759Z,100836.78
2023-06-10T07:52:53.787Z,100852.84
2023-06-10T07:57:56.062Z,100833.59
2023-06-10T08:02:58.078Z,100838.75
2023-06-10T08:08:02.800Z,100843.81
2023-06-10T08:13:06.107Z,100840.19
2023-06-10T08:18:08.093Z,100842.47
2023-06-10T08:23:10.308Z,100842.22
2023-06-10T08:28:12.739Z,100840.94
2023-06-10T08:33:14.790Z,100836.69
2023-06-10T08:38:17.602Z,100833.59
2023-06-10T08:43:36.063Z,100835.53
2023-06-10T08:48:44.867Z,100835.00
2023-06-10T08:53:55.804Z,100833.75
2023-06-10T08:58:59.090Z,100836.66
2023-06-10T09:04:01.763Z,100836.50
2023-06-10T09:09:04.610Z,100828.28
2023-06-10T09:14:06.795Z,100837.69
2023-06-10T09:19:12.642Z,100830.03
2023-06-10T09:24:15.193Z,100830.31
2023-06-10T09:29:17.198Z,100828.78
2023-06-10T09:34:19.352Z,100822.66
2023-06-10T09:39:21.328Z,100830.31
2023-06-10T09:44:23.541Z,100824.66
2023-06-10T09:49:30.235Z,100833.47
2023-06-10T09:54:33.522Z,100825.97
2023-06-10T09:59:36.216Z,100823.81
2023-06-10T10:04:38.134Z,100823.88
2023-06-10T10:09:41.987Z,100818.75
2023-06-10T10:14:48.740Z,100820.72
2023-06-10T10:20:06.210Z,100819.94
2023-06-10T10:25:24.665Z,100823.16
2023-06-10T10:30:28.281Z,100819.41
2023-06-10T10:35:32.090Z,100810.41
2023-06-10T10:40:34.818Z,100807.44
2023-06-10T10:45:36.839Z,100798.13
2023-06-10T10:50:40.907Z,100814.28
2023-06-10T10:55:42.957Z,100806.19
2023-06-10T11:00:46.885Z,100804.94
2023-06-10T11:05:50.864Z,100801.94
2023-06-10T11:10:56.580Z,100805.47
2023-06-10T11:15:59.701Z,100795.41
2023-06-10T11:21:06.177Z,100794.34
2023-06-10T11:26:19.903Z,100790.75
2023-06-10T11:31:40.018Z,100794.22
2023-06-10T11:36:43.917Z,100773.31
2023-06-10T11:41:46.918Z,100782.97
2023-06-10T11:46:51.207Z,100784.09
2023-06-10T11:51:53.460Z,100779.84
2023-06-10T11:56:59.934Z,100782.25
2023-06-10T12:02:01.901Z,100776.44
2023-06-10T12:07:03.850Z,100770.50
2023-06-10T12:12:11.972Z,100775.72
2023-06-10T12:17:14.040Z,100771.22
2023-06-10T12:22:16.452Z,100758.31
2023-06-10T12:27:20.049Z,100760.97
2023-06-10T12:32:28.676Z,100756.84
2023-06-10T12:37:30.581Z,100758.13
2023-06-10T12:42:32.973Z,100759.44
2023-06-10T12:47:36.897Z,100748.38
2023-06-10T12:52:39.078Z,100747.38
2023-06-10T12:57:49.580Z,100749.94
2023-06-10T13:02:52.108Z,100747.38
2023-06-10T13:07:54.244Z,100742.28
2023-06-10T13:12:56.161Z,100741.41
2023-06-10T13:17:58.264Z,100739.34
2023-06-10T13:23:00.507Z,100733.22
2023-06-10T13:28:02.800Z,100734.47
2023-06-10T13:33:04.884Z,100725.84
2023-06-10T13:38:08.560Z,100723.53
2023-06-10T13:43:11.474Z,100731.25
2023-06-10T13:48:13.473Z,100714.78
2023-06-10T13:53:16.158Z,100707.13
2023-06-10T13:58:18.133Z,100710.38
2023-06-10T14:03:20.178Z,100718.16
2023-06-10T14:08:22.628Z,100716.03
2023-06-10T14:13:25.086Z,100712.66
2023-06-10T14:18:26.978Z,100700.56
2023-06-10T14:23:29.089Z,100704.69
2023-06-10T14:28:30.975Z,100702.00
2023-06-10T14:33:33.196Z,100716.31
2023-06-10T14:38:35.173Z,100705.84
2023-06-10T14:43:37.326Z,100710.53
2023-06-10T14:48:39.392Z,100707.13
2023-06-10T14:53:41.354Z,100693.66
2023-06-10T14:58:43.258Z,100691.38
2023-06-10T15:03:45.757Z,100692.09
2023-06-10T15:08:49.951Z,100676.59
2023-06-10T15:13:51.892Z,100683.44
2023-06-10T15:18:53.821Z,100680.75
2023-06-10T15:23:56.126Z,100682.44
2023-06-10T15:28:58.424Z,100680.16
2023-06-10T15:34:01.309Z,100675.31
2023-06-10T15:39:05.822Z,100683.56
2023-06-10T15:44:07.719Z,100673.34
2023-06-10T15:49:09.877Z,100677.47
2023-06-10T15:54:11.976Z,100669.38
2023-06-10T15:59:14.136Z,100673.63
2023-06-10T16:04:16.224Z,100675.06
2023-06-10T16:09:18.425Z,100664.09
2023-06-10T16:14:20.973Z,100667.53
2023-06-10T16:19:23.019Z,100663.13
2023-06-10T16:24:25.452Z,100657.59
2023-06-10T16:29:27.884Z,100641.69
2023-06-10T16:34:29.930Z,100653.78
2023-06-10T16:39:31.880Z,100646.13
2023-06-10T16:44:33.845Z,100644.56
2023-06-10T16:49:37.702Z,100637.91
2023-06-10T16:54:39.929Z,100645.00
2023-06-10T16:59:41.962Z,100643.56
2023-06-10T17:04:44.191Z,100646.53
2023-06-10T17:09:46.270Z,100650.06
2023-06-10T17:14:48.240Z,100646.53
2023-06-10T17:19:51.199Z,100639.88
2023-06-10T17:24:53.666Z,100648.97
2023-06-10T17:29:55.490Z,100656.34
2023-06-10T17:34:57.564Z,100656.75
2023-06-10T17:39:59.586Z,100656.91
2023-06-10T17:45:01.548Z,100661.75
2023-06-10T17:50:03.641Z,100668.28
2023-06-10T17:55:06.099Z,100677.94
2023-06-10T18:00:08.570Z,100680.78
2023-06-10T18:05:11.204Z,100671.00
2023-06-10T18:10:13.710Z,100679.09
2023-06-10T18:15:15.863Z,100675.19
2023-06-10T18:20:17.914Z,100677.34
2023-06-10T18:25:20.215Z,100680.34
2023-06-10T18:30:22.458Z,100678.91
2023-06-10T18:35:24.437Z,100680.34
2023-06-10T18:40:26.355Z,100685.88
2023-06-10T18:45:28.304Z,100687.84
2023-06-10T18:50:30.407Z,100696.69
2023-06-10T18:55:37.173Z,100697.25
2023-06-10T19:00:39.192Z,100710.03
2023-06-10T19:05:41.417Z,100710.59
2023-06-10T19:10:43.647Z,100714.56
2023-06-10T19:15:45.873Z,100712.88
2023-06-10T19:20:48.426Z,100719.94
2023-06-10T19:25:50.448Z,100721.81
2023-06-10T19:30:52.406Z,100730.28
2023-06-10T19:35:54.466Z,100736.69
2023-06-10T19:40:56.733Z,100737.38
2023-06-10T19:45:58.804Z,100740.22
2023-06-10T19:51:01.041Z,100738.50
2023-06-10T19:56:03.127Z,100745.63
2023-06-10T20:01:05.331Z,100752.59
2023-06-10T20:06:07.554Z,100756.25
2023-06-10T20:11:09.630Z,100746.34
2023-06-10T20:16:12.778Z,100752.88
2023-06-10T20:21:18.096Z,100758.09
2023-06-10T20:26:25.157Z,100765.50
2023-06-10T20:31:27.793Z,100778.97
2023-06-10T20:36:32.626Z,100772.72
2023-06-10T20:41:35.790Z,100780.41
2023-06-10T20:46:37.865Z,100792.63
2023-06-10T20:51:40.009Z,100794.31
2023-06-10T20:56:42.714Z,100797.84
2023-06-10T21:01:45.346Z,100799.00
2023-06-10T21:06:47.439Z,100806.97
2023-06-10T21:11:49.305Z,100793.91
2023-06-10T21:16:51.432Z,100791.91
2023-06-10T21:21:53.435Z,100795.47
2023-06-10T21:26:55.410Z,100801.81
2023-06-10T21:31:57.744Z,100797.84
2023-06-10T21:36:59.757Z,100796.16
2023-06-10T21:42:01.927Z,100800.13
2023-06-10T21:47:04.016Z,100803.75
2023-06-10T21:52:06.444Z,100807.28
2023-06-10T21:57:09.142Z,100803.97
2023-06-10T22:02:11.327Z,100807.38
2023-06-10T22:07:13.620Z,100811.63
2023-06-10T22:12:16.625Z,100816.75
2023-06-10T22:17:19.366Z,100815.06
2023-06-10T22:22:21.578Z,100819.59
2023-06-10T22:27:23.577Z,100822.97
2023-06-10T22:32:26.152Z,100821.41
2023-06-10T22:37:28.307Z,100823.41
2023-06-10T22:42:30.577Z,100816.03
2023-06-10T22:47:32.550Z,100819.81
2023-06-10T22:52:34.740Z,100823.81
2023-06-10T22:57:36.787Z,100826.09
2023-06-10T23:02:39.646Z,100817.28
2023-06-10T23:07:41.640Z,100818.66
2023-06-10T23:12:43.678Z,100820.81
2023-06-10T23:17:46.484Z,100821.41
2023-06-10T23:22:53.279Z,100821.97
2023-06-10T23:27:55.898Z,100827.91
2023-06-10T23:32:59.858Z,100825.09
2023-06-10T23:38:02.077Z,100823.81
2023-06-10T23:43:04.085Z,100820.41
2023-06-10T23:48:07.419Z,100820.16
2023-06-10T23:53:09.656Z,100813.63
2023-06-10T23:58:12.106Z,100819.28
